Lacygne, Kansas
Current Conditions -  °F | °C
As of 6:53 PM on Thursday 27 Nov 2014 (Local Time) from KIXD Reporting Station
Clear Clear  
Wind Chill: 24°   Ceiling: Unl
Heat Index: 32°   Visibility: 10mi
Dew Point: 22°   Wind: 9mph
Humidity: 66%   Direction: 130°SE
Pressure: 30.33"   Gusts: NA
Location:  38.3335°N, 94.7608°W
Report Text: KIXD 280053Z 13008KT 10SM CLR 00/M06 A3033 RMK AO2 SLP281 T00001056
Loading
Personal Weather Stations






























Interactive Weather Map New forecast layout! Learn more

10-Day Weather Forecast

Advertisements
Track Severe Weather on mobile